sensor_id;sensor_type;location;lat;lon;timestamp;P1;durP1;ratioP1;P2;durP2;ratioP2
22778;SDS011;11556;51.194;3.800;2023-04-03T00:01:30;16.38;;;9.68;;
22778;SDS011;11556;51.194;3.800;2023-04-03T00:03:56;16.63;;;9.45;;
22778;SDS011;11556;51.194;3.800;2023-04-03T00:06:22;22.20;;;11.40;;
22778;SDS011;11556;51.194;3.800;2023-04-03T00:08:48;19.98;;;11.30;;
22778;SDS011;11556;51.194;3.800;2023-04-03T00:11:15;19.77;;;10.90;;
22778;SDS011;11556;51.194;3.800;2023-04-03T00:13:41;18.58;;;11.13;;
22778;SDS011;11556;51.194;3.800;2023-04-03T00:16:08;15.43;;;9.70;;
22778;SDS011;11556;51.194;3.800;2023-04-03T00:18:35;18.05;;;9.85;;
22778;SDS011;11556;51.194;3.800;2023-04-03T00:21:01;15.68;;;10.13;;
22778;SDS011;11556;51.194;3.800;2023-04-03T00:23:27;19.67;;;11.23;;
22778;SDS011;11556;51.194;3.800;2023-04-03T00:25:53;19.50;;;11.13;;
22778;SDS011;11556;51.194;3.800;2023-04-03T00:28:19;19.90;;;11.30;;
22778;SDS011;11556;51.194;3.800;2023-04-03T00:30:45;16.48;;;10.23;;
22778;SDS011;11556;51.194;3.800;2023-04-03T00:33:12;20.20;;;10.40;;
22778;SDS011;11556;51.194;3.800;2023-04-03T00:35:38;18.20;;;10.23;;
22778;SDS011;11556;51.194;3.800;2023-04-03T00:38:04;19.75;;;10.13;;
22778;SDS011;11556;51.194;3.800;2023-04-03T00:40:33;15.25;;;9.95;;
22778;SDS011;11556;51.194;3.800;2023-04-03T00:43:05;16.52;;;9.60;;
22778;SDS011;11556;51.194;3.800;2023-04-03T00:45:54;14.60;;;9.40;;
22778;SDS011;11556;51.194;3.800;2023-04-03T00:48:22;16.80;;;10.32;;
22778;SDS011;11556;51.194;3.800;2023-04-03T00:50:50;16.30;;;9.98;;
22778;SDS011;11556;51.194;3.800;2023-04-03T00:53:18;17.80;;;8.82;;
22778;SDS011;11556;51.194;3.800;2023-04-03T00:55:47;16.83;;;9.43;;
22778;SDS011;11556;51.194;3.800;2023-04-03T00:58:14;18.60;;;10.20;;
22778;SDS011;11556;51.194;3.800;2023-04-03T01:00:43;16.88;;;9.45;;
22778;SDS011;11556;51.194;3.800;2023-04-03T01:03:13;18.42;;;9.52;;
22778;SDS011;11556;51.194;3.800;2023-04-03T01:05:38;23.80;;;10.50;;
22778;SDS011;11556;51.194;3.800;2023-04-03T01:08:05;20.35;;;10.43;;
22778;SDS011;11556;51.194;3.800;2023-04-03T01:10:31;21.60;;;10.68;;
22778;SDS011;11556;51.194;3.800;2023-04-03T01:12:57;19.13;;;10.77;;
22778;SDS011;11556;51.194;3.800;2023-04-03T01:15:25;18.95;;;10.43;;
22778;SDS011;11556;51.194;3.800;2023-04-03T01:17:55;18.52;;;10.32;;
22778;SDS011;11556;51.194;3.800;2023-04-03T01:25:36;18.60;;;10.60;;
22778;SDS011;11556;51.194;3.800;2023-04-03T01:28:05;16.55;;;10.02;;
22778;SDS011;11556;51.194;3.800;2023-04-03T01:30:34;18.25;;;10.50;;
22778;SDS011;11556;51.194;3.800;2023-04-03T01:33:04;16.52;;;10.15;;
22778;SDS011;11556;51.194;3.800;2023-04-03T01:35:30;17.75;;;9.68;;
22778;SDS011;11556;51.194;3.800;2023-04-03T01:37:55;17.38;;;10.35;;
22778;SDS011;11556;51.194;3.800;2023-04-03T01:40:21;17.48;;;10.05;;
22778;SDS011;11556;51.194;3.800;2023-04-03T01:42:47;13.75;;;9.48;;
22778;SDS011;11556;51.194;3.800;2023-04-03T01:45:12;17.83;;;10.82;;
22778;SDS011;11556;51.194;3.800;2023-04-03T01:47:38;19.60;;;10.57;;
22778;SDS011;11556;51.194;3.800;2023-04-03T01:50:04;19.48;;;10.32;;
22778;SDS011;11556;51.194;3.800;2023-04-03T01:52:29;15.68;;;10.02;;
22778;SDS011;11556;51.194;3.800;2023-04-03T01:54:55;21.00;;;10.18;;
22778;SDS011;11556;51.194;3.800;2023-04-03T01:57:20;19.70;;;10.70;;
22778;SDS011;11556;51.194;3.800;2023-04-03T01:59:46;18.30;;;10.38;;
22778;SDS011;11556;51.194;3.800;2023-04-03T02:02:12;18.75;;;10.35;;
22778;SDS011;11556;51.194;3.800;2023-04-03T02:04:39;17.48;;;9.80;;
22778;SDS011;11556;51.194;3.800;2023-04-03T02:07:05;18.60;;;10.57;;
22778;SDS011;11556;51.194;3.800;2023-04-03T02:09:31;19.73;;;9.43;;
22778;SDS011;11556;51.194;3.800;2023-04-03T02:11:57;19.20;;;9.32;;
22778;SDS011;11556;51.194;3.800;2023-04-03T02:14:22;15.20;;;9.18;;
22778;SDS011;11556;51.194;3.800;2023-04-03T02:16:48;19.40;;;9.95;;
22778;SDS011;11556;51.194;3.800;2023-04-03T02:19:14;17.33;;;10.48;;
22778;SDS011;11556;51.194;3.800;2023-04-03T02:21:40;20.38;;;11.20;;
22778;SDS011;11556;51.194;3.800;2023-04-03T02:24:06;16.23;;;10.65;;
22778;SDS011;11556;51.194;3.800;2023-04-03T02:26:32;16.45;;;9.57;;
22778;SDS011;11556;51.194;3.800;2023-04-03T02:28:58;15.02;;;8.32;;
22778;SDS011;11556;51.194;3.800;2023-04-03T02:31:23;13.95;;;8.25;;
22778;SDS011;11556;51.194;3.800;2023-04-03T02:33:49;15.05;;;8.82;;
22778;SDS011;11556;51.194;3.800;2023-04-03T02:36:15;14.35;;;8.82;;
22778;SDS011;11556;51.194;3.800;2023-04-03T02:38:41;13.30;;;8.52;;
22778;SDS011;11556;51.194;3.800;2023-04-03T02:41:08;16.70;;;8.52;;
22778;SDS011;11556;51.194;3.800;2023-04-03T02:43:35;12.65;;;8.13;;
22778;SDS011;11556;51.194;3.800;2023-04-03T02:46:01;12.93;;;8.40;;
22778;SDS011;11556;51.194;3.800;2023-04-03T02:48:27;14.15;;;8.30;;
22778;SDS011;11556;51.194;3.800;2023-04-03T02:50:52;17.67;;;8.98;;
22778;SDS011;11556;51.194;3.800;2023-04-03T02:53:18;15.02;;;8.35;;
22778;SDS011;11556;51.194;3.800;2023-04-03T02:55:44;14.13;;;8.85;;
22778;SDS011;11556;51.194;3.800;2023-04-03T02:58:10;16.33;;;8.73;;
22778;SDS011;11556;51.194;3.800;2023-04-03T03:00:36;15.70;;;9.23;;
22778;SDS011;11556;51.194;3.800;2023-04-03T03:03:02;15.90;;;10.18;;
22778;SDS011;11556;51.194;3.800;2023-04-03T03:05:28;19.58;;;9.20;;
22778;SDS011;11556;51.194;3.800;2023-04-03T03:07:53;17.20;;;9.07;;
22778;SDS011;11556;51.194;3.800;2023-04-03T03:10:19;15.55;;;9.93;;
22778;SDS011;11556;51.194;3.800;2023-04-03T03:12:45;15.98;;;9.75;;
22778;SDS011;11556;51.194;3.800;2023-04-03T03:15:10;14.73;;;9.55;;
22778;SDS011;11556;51.194;3.800;2023-04-03T03:17:36;21.30;;;10.55;;
22778;SDS011;11556;51.194;3.800;2023-04-03T03:20:03;19.25;;;10.18;;
22778;SDS011;11556;51.194;3.800;2023-04-03T03:22:30;18.38;;;10.35;;
22778;SDS011;11556;51.194;3.800;2023-04-03T03:24:55;16.00;;;10.13;;
22778;SDS011;11556;51.194;3.800;2023-04-03T03:27:21;17.42;;;10.00;;
22778;SDS011;11556;51.194;3.800;2023-04-03T03:29:46;18.73;;;10.85;;
22778;SDS011;11556;51.194;3.800;2023-04-03T03:32:12;18.35;;;10.98;;
22778;SDS011;11556;51.194;3.800;2023-04-03T03:34:38;20.05;;;10.75;;
22778;SDS011;11556;51.194;3.800;2023-04-03T03:37:03;16.00;;;10.35;;
22778;SDS011;11556;51.194;3.800;2023-04-03T03:39:29;24.27;;;11.75;;
22778;SDS011;11556;51.194;3.800;2023-04-03T03:41:55;18.15;;;10.60;;
22778;SDS011;11556;51.194;3.800;2023-04-03T03:44:22;15.98;;;10.13;;
22778;SDS011;11556;51.194;3.800;2023-04-03T03:46:47;19.50;;;11.45;;
22778;SDS011;11556;51.194;3.800;2023-04-03T03:49:13;18.38;;;11.05;;
22778;SDS011;11556;51.194;3.800;2023-04-03T03:51:39;18.15;;;10.80;;
22778;SDS011;11556;51.194;3.800;2023-04-03T03:54:05;23.80;;;11.13;;
22778;SDS011;11556;51.194;3.800;2023-04-03T03:56:31;21.23;;;11.60;;
22778;SDS011;11556;51.194;3.800;2023-04-03T03:58:57;21.52;;;11.60;;
22778;SDS011;11556;51.194;3.800;2023-04-03T04:01:23;19.98;;;11.40;;
22778;SDS011;11556;51.194;3.800;2023-04-03T04:03:49;19.40;;;11.90;;
22778;SDS011;11556;51.194;3.800;2023-04-03T04:06:14;22.30;;;11.93;;
22778;SDS011;11556;51.194;3.800;2023-04-03T04:08:40;21.17;;;12.40;;
22778;SDS011;11556;51.194;3.800;2023-04-03T04:11:06;20.90;;;12.68;;
22778;SDS011;11556;51.194;3.800;2023-04-03T04:13:32;20.38;;;12.32;;
22778;SDS011;11556;51.194;3.800;2023-04-03T04:15:58;18.55;;;12.10;;
22778;SDS011;11556;51.194;3.800;2023-04-03T04:18:24;19.02;;;11.40;;
22778;SDS011;11556;51.194;3.800;2023-04-03T04:20:49;20.33;;;11.88;;
22778;SDS011;11556;51.194;3.800;2023-04-03T04:23:16;25.95;;;12.45;;
22778;SDS011;11556;51.194;3.800;2023-04-03T04:25:46;17.85;;;11.45;;
22778;SDS011;11556;51.194;3.800;2023-04-03T04:28:12;24.02;;;13.07;;
22778;SDS011;11556;51.194;3.800;2023-04-03T04:30:38;20.25;;;13.13;;
22778;SDS011;11556;51.194;3.800;2023-04-03T04:33:03;23.92;;;13.70;;
22778;SDS011;11556;51.194;3.800;2023-04-03T04:35:29;23.80;;;14.23;;
22778;SDS011;11556;51.194;3.800;2023-04-03T04:37:55;22.55;;;12.82;;
22778;SDS011;11556;51.194;3.800;2023-04-03T04:40:21;24.13;;;13.30;;
22778;SDS011;11556;51.194;3.800;2023-04-03T04:42:46;22.73;;;13.68;;
22778;SDS011;11556;51.194;3.800;2023-04-03T04:45:12;29.58;;;14.43;;
22778;SDS011;11556;51.194;3.800;2023-04-03T04:47:38;23.15;;;13.75;;
22778;SDS011;11556;51.194;3.800;2023-04-03T04:50:04;26.55;;;14.50;;
22778;SDS011;11556;51.194;3.800;2023-04-03T04:52:30;26.92;;;13.93;;
22778;SDS011;11556;51.194;3.800;2023-04-03T04:54:56;29.17;;;14.38;;
22778;SDS011;11556;51.194;3.800;2023-04-03T04:57:21;25.95;;;13.82;;
22778;SDS011;11556;51.194;3.800;2023-04-03T04:59:47;23.15;;;14.07;;
22778;SDS011;11556;51.194;3.800;2023-04-03T05:02:13;24.00;;;14.40;;
22778;SDS011;11556;51.194;3.800;2023-04-03T05:04:38;25.65;;;14.82;;
22778;SDS011;11556;51.194;3.800;2023-04-03T05:07:04;25.17;;;13.93;;
22778;SDS011;11556;51.194;3.800;2023-04-03T05:09:30;22.67;;;13.18;;
22778;SDS011;11556;51.194;3.800;2023-04-03T05:11:55;26.10;;;13.85;;
22778;SDS011;11556;51.194;3.800;2023-04-03T05:14:21;23.27;;;13.30;;
22778;SDS011;11556;51.194;3.800;2023-04-03T05:16:47;20.55;;;13.60;;
22778;SDS011;11556;51.194;3.800;2023-04-03T05:19:13;25.88;;;14.18;;
22778;SDS011;11556;51.194;3.800;2023-04-03T05:21:38;29.73;;;14.45;;
22778;SDS011;11556;51.194;3.800;2023-04-03T05:24:04;26.70;;;13.95;;
22778;SDS011;11556;51.194;3.800;2023-04-03T05:26:33;26.33;;;14.35;;
22778;SDS011;11556;51.194;3.800;2023-04-03T05:28:59;27.73;;;14.27;;
22778;SDS011;11556;51.194;3.800;2023-04-03T05:31:25;29.73;;;14.68;;
22778;SDS011;11556;51.194;3.800;2023-04-03T05:33:54;23.80;;;14.05;;
22778;SDS011;11556;51.194;3.800;2023-04-03T05:36:19;32.17;;;17.65;;
22778;SDS011;11556;51.194;3.800;2023-04-03T05:38:45;33.97;;;19.15;;
22778;SDS011;11556;51.194;3.800;2023-04-03T05:41:11;33.03;;;19.33;;
22778;SDS011;11556;51.194;3.800;2023-04-03T05:43:36;38.83;;;20.00;;
22778;SDS011;11556;51.194;3.800;2023-04-03T05:46:04;32.40;;;19.35;;
22778;SDS011;11556;51.194;3.800;2023-04-03T05:48:33;36.10;;;19.90;;
22778;SDS011;11556;51.194;3.800;2023-04-03T05:50:59;37.20;;;20.85;;
22778;SDS011;11556;51.194;3.800;2023-04-03T05:53:27;35.45;;;20.65;;
22778;SDS011;11556;51.194;3.800;2023-04-03T05:55:54;34.33;;;18.52;;
22778;SDS011;11556;51.194;3.800;2023-04-03T05:58:20;31.58;;;17.83;;
22778;SDS011;11556;51.194;3.800;2023-04-03T06:00:46;33.20;;;17.88;;
22778;SDS011;11556;51.194;3.800;2023-04-03T06:03:12;29.42;;;16.13;;
22778;SDS011;11556;51.194;3.800;2023-04-03T06:05:39;30.40;;;15.93;;
22778;SDS011;11556;51.194;3.800;2023-04-03T06:08:04;32.97;;;16.65;;
22778;SDS011;11556;51.194;3.800;2023-04-03T06:10:30;29.42;;;16.33;;
22778;SDS011;11556;51.194;3.800;2023-04-03T06:12:56;24.52;;;14.00;;
22778;SDS011;11556;51.194;3.800;2023-04-03T06:15:22;22.50;;;13.55;;
22778;SDS011;11556;51.194;3.800;2023-04-03T06:17:47;21.60;;;13.23;;
22778;SDS011;11556;51.194;3.800;2023-04-03T06:20:13;18.88;;;11.70;;
22778;SDS011;11556;51.194;3.800;2023-04-03T06:22:39;21.20;;;12.05;;
22778;SDS011;11556;51.194;3.800;2023-04-03T06:25:06;20.80;;;12.10;;
22778;SDS011;11556;51.194;3.800;2023-04-03T06:27:32;22.02;;;11.60;;
22778;SDS011;11556;51.194;3.800;2023-04-03T06:29:58;18.20;;;11.35;;
22778;SDS011;11556;51.194;3.800;2023-04-03T06:32:25;17.20;;;11.65;;
22778;SDS011;11556;51.194;3.800;2023-04-03T06:34:51;18.38;;;10.93;;
22778;SDS011;11556;51.194;3.800;2023-04-03T06:37:20;16.13;;;10.00;;
22778;SDS011;11556;51.194;3.800;2023-04-03T06:39:46;14.93;;;9.20;;
22778;SDS011;11556;51.194;3.800;2023-04-03T06:42:13;16.58;;;8.77;;
22778;SDS011;11556;51.194;3.800;2023-04-03T06:44:38;12.93;;;8.30;;
22778;SDS011;11556;51.194;3.800;2023-04-03T06:47:04;12.73;;;7.63;;
22778;SDS011;11556;51.194;3.800;2023-04-03T06:49:30;13.98;;;7.63;;
22778;SDS011;11556;51.194;3.800;2023-04-03T06:51:57;12.15;;;7.30;;
22778;SDS011;11556;51.194;3.800;2023-04-03T06:54:22;11.90;;;7.38;;
22778;SDS011;11556;51.194;3.800;2023-04-03T06:56:48;9.30;;;7.50;;
22778;SDS011;11556;51.194;3.800;2023-04-03T06:59:14;11.68;;;7.80;;
22778;SDS011;11556;51.194;3.800;2023-04-03T07:01:40;12.63;;;7.80;;
22778;SDS011;11556;51.194;3.800;2023-04-03T07:04:06;14.10;;;7.40;;
22778;SDS011;11556;51.194;3.800;2023-04-03T07:06:33;11.23;;;7.70;;
22778;SDS011;11556;51.194;3.800;2023-04-03T07:08:59;11.80;;;7.20;;
22778;SDS011;11556;51.194;3.800;2023-04-03T07:11:25;11.95;;;7.45;;
22778;SDS011;11556;51.194;3.800;2023-04-03T07:13:51;13.30;;;7.30;;
22778;SDS011;11556;51.194;3.800;2023-04-03T07:16:17;10.82;;;7.07;;
22778;SDS011;11556;51.194;3.800;2023-04-03T07:18:43;9.88;;;7.13;;
22778;SDS011;11556;51.194;3.800;2023-04-03T07:21:09;10.40;;;7.28;;
22778;SDS011;11556;51.194;3.800;2023-04-03T07:23:35;10.18;;;7.00;;
22778;SDS011;11556;51.194;3.800;2023-04-03T07:26:01;8.40;;;6.63;;
22778;SDS011;11556;51.194;3.800;2023-04-03T07:28:26;11.35;;;6.55;;
22778;SDS011;11556;51.194;3.800;2023-04-03T07:31:03;9.18;;;6.63;;
22778;SDS011;11556;51.194;3.800;2023-04-03T07:33:31;10.40;;;7.38;;
22778;SDS011;11556;51.194;3.800;2023-04-03T07:35:57;9.30;;;6.80;;
22778;SDS011;11556;51.194;3.800;2023-04-03T07:38:23;10.35;;;5.93;;
22778;SDS011;11556;51.194;3.800;2023-04-03T07:40:49;7.85;;;5.68;;
22778;SDS011;11556;51.194;3.800;2023-04-03T07:43:16;8.57;;;6.07;;
22778;SDS011;11556;51.194;3.800;2023-04-03T07:45:42;8.35;;;5.68;;
22778;SDS011;11556;51.194;3.800;2023-04-03T07:48:11;12.63;;;5.55;;
22778;SDS011;11556;51.194;3.800;2023-04-03T07:50:41;7.50;;;5.00;;
22778;SDS011;11556;51.194;3.800;2023-04-03T07:53:07;8.27;;;5.47;;
22778;SDS011;11556;51.194;3.800;2023-04-03T07:55:33;8.63;;;5.47;;
22778;SDS011;11556;51.194;3.800;2023-04-03T07:57:59;9.32;;;5.80;;
22778;SDS011;11556;51.194;3.800;2023-04-03T08:00:24;8.65;;;5.38;;
22778;SDS011;11556;51.194;3.800;2023-04-03T08:02:50;10.35;;;5.72;;
22778;SDS011;11556;51.194;3.800;2023-04-03T08:05:19;6.72;;;5.05;;
22778;SDS011;11556;51.194;3.800;2023-04-03T08:07:46;7.20;;;4.63;;
22778;SDS011;11556;51.194;3.800;2023-04-03T08:10:12;8.95;;;4.68;;
22778;SDS011;11556;51.194;3.800;2023-04-03T08:12:38;8.27;;;5.47;;
22778;SDS011;11556;51.194;3.800;2023-04-03T08:15:04;10.10;;;5.35;;
22778;SDS011;11556;51.194;3.800;2023-04-03T08:17:32;7.85;;;5.18;;
22778;SDS011;11556;51.194;3.800;2023-04-03T08:19:57;9.23;;;5.25;;
22778;SDS011;11556;51.194;3.800;2023-04-03T08:22:23;9.10;;;5.30;;
22778;SDS011;11556;51.194;3.800;2023-04-03T08:24:49;5.80;;;4.50;;
22778;SDS011;11556;51.194;3.800;2023-04-03T08:27:14;7.53;;;5.07;;
22778;SDS011;11556;51.194;3.800;2023-04-03T08:29:40;9.50;;;4.93;;
22778;SDS011;11556;51.194;3.800;2023-04-03T08:32:06;10.02;;;5.10;;
22778;SDS011;11556;51.194;3.800;2023-04-03T08:34:32;7.70;;;4.80;;
22778;SDS011;11556;51.194;3.800;2023-04-03T08:37:01;5.72;;;4.78;;
22778;SDS011;11556;51.194;3.800;2023-04-03T08:39:27;7.50;;;4.35;;
22778;SDS011;11556;51.194;3.800;2023-04-03T08:41:53;8.98;;;4.70;;
22778;SDS011;11556;51.194;3.800;2023-04-03T08:44:38;8.40;;;4.65;;
22778;SDS011;11556;51.194;3.800;2023-04-03T08:52:19;6.53;;;3.90;;
22778;SDS011;11556;51.194;3.800;2023-04-03T08:55:20;7.20;;;3.80;;
22778;SDS011;11556;51.194;3.800;2023-04-03T08:57:51;4.68;;;3.55;;
22778;SDS011;11556;51.194;3.800;2023-04-03T09:00:25;6.40;;;3.00;;
22778;SDS011;11556;51.194;3.800;2023-04-03T09:02:55;4.75;;;2.72;;
22778;SDS011;11556;51.194;3.800;2023-04-03T09:08:21;5.32;;;2.70;;
22778;SDS011;11556;51.194;3.800;2023-04-03T09:11:41;10.57;;;3.05;;
22778;SDS011;11556;51.194;3.800;2023-04-03T09:13:57;6.97;;;3.05;;
22778;SDS011;11556;51.194;3.800;2023-04-03T09:19:37;8.32;;;2.33;;
22778;SDS011;11556;51.194;3.800;2023-04-03T09:22:20;5.70;;;2.30;;
22778;SDS011;11556;51.194;3.800;2023-04-03T09:28:01;2.83;;;1.23;;
22778;SDS011;11556;51.194;3.800;2023-04-03T09:30:28;3.78;;;1.50;;
22778;SDS011;11556;51.194;3.800;2023-04-03T09:32:55;5.13;;;1.85;;
22778;SDS011;11556;51.194;3.800;2023-04-03T09:35:29;4.22;;;1.98;;
22778;SDS011;11556;51.194;3.800;2023-04-03T09:38:01;4.32;;;1.92;;
22778;SDS011;11556;51.194;3.800;2023-04-03T09:40:48;5.68;;;1.85;;
22778;SDS011;11556;51.194;3.800;2023-04-03T09:43:29;4.90;;;2.13;;
22778;SDS011;11556;51.194;3.800;2023-04-03T09:48:51;4.25;;;1.85;;
22778;SDS011;11556;51.194;3.800;2023-04-03T09:51:21;4.28;;;2.30;;
22778;SDS011;11556;51.194;3.800;2023-04-03T09:53:52;4.53;;;2.47;;
22778;SDS011;11556;51.194;3.800;2023-04-03T09:59:18;5.68;;;1.95;;
22778;SDS011;11556;51.194;3.800;2023-04-03T10:01:42;3.92;;;2.15;;
22778;SDS011;11556;51.194;3.800;2023-04-03T10:04:21;5.93;;;2.05;;
22778;SDS011;11556;51.194;3.800;2023-04-03T10:06:48;6.13;;;1.80;;
22778;SDS011;11556;51.194;3.800;2023-04-03T10:09:23;5.68;;;2.15;;
22778;SDS011;11556;51.194;3.800;2023-04-03T10:14:36;7.53;;;2.30;;
22778;SDS011;11556;51.194;3.800;2023-04-03T10:19:42;5.28;;;1.90;;
22778;SDS011;11556;51.194;3.800;2023-04-03T10:22:23;4.38;;;1.75;;
22778;SDS011;11556;51.194;3.800;2023-04-03T10:25:04;4.13;;;1.67;;
22778;SDS011;11556;51.194;3.800;2023-04-03T10:27:42;5.68;;;1.77;;
22778;SDS011;11556;51.194;3.800;2023-04-03T10:33:31;4.03;;;1.48;;
22778;SDS011;11556;51.194;3.800;2023-04-03T10:39:00;6.00;;;1.83;;
22778;SDS011;11556;51.194;3.800;2023-04-03T10:46:52;3.85;;;1.98;;
22778;SDS011;11556;51.194;3.800;2023-04-03T10:49:34;3.55;;;1.40;;
22778;SDS011;11556;51.194;3.800;2023-04-03T10:58:04;4.20;;;1.60;;
22778;SDS011;11556;51.194;3.800;2023-04-03T11:00:36;4.18;;;1.65;;
22778;SDS011;11556;51.194;3.800;2023-04-03T11:03:17;3.88;;;1.77;;
22778;SDS011;11556;51.194;3.800;2023-04-03T11:05:56;2.70;;;1.70;;
22778;SDS011;11556;51.194;3.800;2023-04-03T11:08:33;2.45;;;1.40;;
22778;SDS011;11556;51.194;3.800;2023-04-03T11:11:17;3.97;;;1.60;;
22778;SDS011;11556;51.194;3.800;2023-04-03T11:16:29;6.47;;;1.52;;
22778;SDS011;11556;51.194;3.800;2023-04-03T11:19:05;3.38;;;1.50;;
22778;SDS011;11556;51.194;3.800;2023-04-03T11:21:54;2.72;;;1.45;;
22778;SDS011;11556;51.194;3.800;2023-04-03T11:24:27;2.85;;;1.63;;
22778;SDS011;11556;51.194;3.800;2023-04-03T11:26:56;3.22;;;1.27;;
22778;SDS011;11556;51.194;3.800;2023-04-03T11:29:25;3.58;;;1.42;;
22778;SDS011;11556;51.194;3.800;2023-04-03T11:37:13;2.60;;;1.20;;
22778;SDS011;11556;51.194;3.800;2023-04-03T11:40:47;4.38;;;1.52;;
22778;SDS011;11556;51.194;3.800;2023-04-03T11:43:03;2.45;;;1.23;;
22778;SDS011;11556;51.194;3.800;2023-04-03T11:45:36;1.85;;;0.93;;
22778;SDS011;11556;51.194;3.800;2023-04-03T11:48:05;1.92;;;1.27;;
22778;SDS011;11556;51.194;3.800;2023-04-03T11:50:44;3.45;;;1.40;;
22778;SDS011;11556;51.194;3.800;2023-04-03T11:55:43;4.55;;;1.50;;
22778;SDS011;11556;51.194;3.800;2023-04-03T12:00:49;2.05;;;1.40;;
22778;SDS011;11556;51.194;3.800;2023-04-03T12:05:49;3.10;;;1.23;;
22778;SDS011;11556;51.194;3.800;2023-04-03T12:08:28;2.70;;;1.20;;
22778;SDS011;11556;51.194;3.800;2023-04-03T12:13:43;1.48;;;1.13;;
22778;SDS011;11556;51.194;3.800;2023-04-03T12:16:29;1.95;;;1.30;;
22778;SDS011;11556;51.194;3.800;2023-04-03T12:29:37;2.70;;;1.10;;
22778;SDS011;11556;51.194;3.800;2023-04-03T12:32:19;2.00;;;1.25;;
22778;SDS011;11556;51.194;3.800;2023-04-03T12:43:00;3.78;;;1.25;;
22778;SDS011;11556;51.194;3.800;2023-04-03T12:48:17;1.88;;;1.00;;
22778;SDS011;11556;51.194;3.800;2023-04-03T12:50:47;1.30;;;0.90;;
22778;SDS011;11556;51.194;3.800;2023-04-03T12:55:43;2.17;;;1.10;;
22778;SDS011;11556;51.194;3.800;2023-04-03T12:58:22;1.90;;;1.00;;
22778;SDS011;11556;51.194;3.800;2023-04-03T13:01:09;1.17;;;0.95;;
22778;SDS011;11556;51.194;3.800;2023-04-03T13:03:39;1.73;;;0.95;;
22778;SDS011;11556;51.194;3.800;2023-04-03T13:06:10;1.60;;;1.20;;
22778;SDS011;11556;51.194;3.800;2023-04-03T13:08:50;1.63;;;1.10;;
22778;SDS011;11556;51.194;3.800;2023-04-03T13:11:17;3.55;;;1.00;;
22778;SDS011;11556;51.194;3.800;2023-04-03T13:17:04;2.72;;;2.20;;
22778;SDS011;11556;51.194;3.800;2023-04-03T13:19:36;2.23;;;0.90;;
22778;SDS011;11556;51.194;3.800;2023-04-03T13:22:04;1.85;;;1.30;;
22778;SDS011;11556;51.194;3.800;2023-04-03T13:24:35;2.40;;;0.88;;
22778;SDS011;11556;51.194;3.800;2023-04-03T13:27:03;1.85;;;0.85;;
22778;SDS011;11556;51.194;3.800;2023-04-03T13:29:38;2.13;;;1.10;;
22778;SDS011;11556;51.194;3.800;2023-04-03T13:32:05;3.55;;;1.10;;
22778;SDS011;11556;51.194;3.800;2023-04-03T13:34:38;2.05;;;1.00;;
22778;SDS011;11556;51.194;3.800;2023-04-03T13:37:06;1.95;;;0.93;;
22778;SDS011;11556;51.194;3.800;2023-04-03T13:39:44;1.95;;;0.80;;
22778;SDS011;11556;51.194;3.800;2023-04-03T13:42:15;2.97;;;1.00;;
22778;SDS011;11556;51.194;3.800;2023-04-03T13:44:45;2.25;;;1.00;;
22778;SDS011;11556;51.194;3.800;2023-04-03T13:52:43;3.78;;;0.80;;
22778;SDS011;11556;51.194;3.800;2023-04-03T13:55:16;1.27;;;1.00;;
22778;SDS011;11556;51.194;3.800;2023-04-03T13:58:00;2.13;;;0.90;;
22778;SDS011;11556;51.194;3.800;2023-04-03T14:00:29;2.42;;;1.17;;
22778;SDS011;11556;51.194;3.800;2023-04-03T14:05:59;2.25;;;1.15;;
22778;SDS011;11556;51.194;3.800;2023-04-03T14:08:26;1.63;;;0.82;;
22778;SDS011;11556;51.194;3.800;2023-04-03T14:10:52;2.22;;;1.05;;
22778;SDS011;11556;51.194;3.800;2023-04-03T14:13:18;3.08;;;1.05;;
22778;SDS011;11556;51.194;3.800;2023-04-03T14:15:46;1.33;;;0.98;;
22778;SDS011;11556;51.194;3.800;2023-04-03T14:18:14;3.95;;;1.40;;
22778;SDS011;11556;51.194;3.800;2023-04-03T14:20:42;2.63;;;1.40;;
22778;SDS011;11556;51.194;3.800;2023-04-03T14:23:08;1.63;;;1.10;;
22778;SDS011;11556;51.194;3.800;2023-04-03T14:25:35;1.95;;;1.15;;
22778;SDS011;11556;51.194;3.800;2023-04-03T14:28:01;2.38;;;0.93;;
22778;SDS011;11556;51.194;3.800;2023-04-03T14:30:37;2.45;;;1.08;;
22778;SDS011;11556;51.194;3.800;2023-04-03T14:33:03;1.40;;;1.20;;
22778;SDS011;11556;51.194;3.800;2023-04-03T14:35:28;2.30;;;1.00;;
22778;SDS011;11556;51.194;3.800;2023-04-03T14:37:54;2.65;;;0.90;;
22778;SDS011;11556;51.194;3.800;2023-04-03T14:40:22;1.80;;;1.20;;
22778;SDS011;11556;51.194;3.800;2023-04-03T14:42:50;3.08;;;1.10;;
22778;SDS011;11556;51.194;3.800;2023-04-03T14:45:16;1.88;;;1.23;;
22778;SDS011;11556;51.194;3.800;2023-04-03T14:47:45;2.45;;;1.10;;
22778;SDS011;11556;51.194;3.800;2023-04-03T14:50:14;1.85;;;1.20;;
22778;SDS011;11556;51.194;3.800;2023-04-03T14:52:42;2.28;;;1.27;;
22778;SDS011;11556;51.194;3.800;2023-04-03T14:55:09;4.25;;;1.42;;
22778;SDS011;11556;51.194;3.800;2023-04-03T14:57:37;1.15;;;0.82;;
22778;SDS011;11556;51.194;3.800;2023-04-03T15:00:04;2.33;;;1.13;;
22778;SDS011;11556;51.194;3.800;2023-04-03T15:02:33;1.55;;;0.90;;
22778;SDS011;11556;51.194;3.800;2023-04-03T15:05:03;1.20;;;1.00;;
22778;SDS011;11556;51.194;3.800;2023-04-03T15:07:35;1.10;;;0.90;;
22778;SDS011;11556;51.194;3.800;2023-04-03T15:10:05;1.77;;;1.20;;
22778;SDS011;11556;51.194;3.800;2023-04-03T15:12:52;2.63;;;1.05;;
22778;SDS011;11556;51.194;3.800;2023-04-03T15:15:19;1.70;;;0.80;;
22778;SDS011;11556;51.194;3.800;2023-04-03T15:17:46;2.35;;;1.00;;
22778;SDS011;11556;51.194;3.800;2023-04-03T15:20:16;1.65;;;1.20;;
22778;SDS011;11556;51.194;3.800;2023-04-03T15:22:44;1.00;;;0.60;;
22778;SDS011;11556;51.194;3.800;2023-04-03T15:25:10;2.40;;;0.93;;
22778;SDS011;11556;51.194;3.800;2023-04-03T15:27:36;1.33;;;0.80;;
22778;SDS011;11556;51.194;3.800;2023-04-03T15:30:04;1.20;;;0.90;;
22778;SDS011;11556;51.194;3.800;2023-04-03T15:32:31;1.80;;;0.93;;
22778;SDS011;11556;51.194;3.800;2023-04-03T15:34:56;1.13;;;0.63;;
22778;SDS011;11556;51.194;3.800;2023-04-03T15:37:22;1.52;;;1.00;;
22778;SDS011;11556;51.194;3.800;2023-04-03T15:39:48;1.58;;;0.80;;
22778;SDS011;11556;51.194;3.800;2023-04-03T15:42:14;4.13;;;0.90;;
22778;SDS011;11556;51.194;3.800;2023-04-03T15:44:39;1.58;;;0.68;;
22778;SDS011;11556;51.194;3.800;2023-04-03T15:47:05;1.73;;;0.80;;
22778;SDS011;11556;51.194;3.800;2023-04-03T15:49:34;1.77;;;0.80;;
22778;SDS011;11556;51.194;3.800;2023-04-03T15:52:00;1.52;;;1.00;;
22778;SDS011;11556;51.194;3.800;2023-04-03T15:54:26;1.20;;;0.70;;
22778;SDS011;11556;51.194;3.800;2023-04-03T15:56:54;2.03;;;0.88;;
22778;SDS011;11556;51.194;3.800;2023-04-03T15:59:20;2.15;;;0.95;;
22778;SDS011;11556;51.194;3.800;2023-04-03T16:01:47;1.75;;;1.02;;
22778;SDS011;11556;51.194;3.800;2023-04-03T16:04:13;1.60;;;0.80;;
22778;SDS011;11556;51.194;3.800;2023-04-03T16:06:39;4.38;;;1.40;;
22778;SDS011;11556;51.194;3.800;2023-04-03T16:09:06;3.00;;;0.93;;
22778;SDS011;11556;51.194;3.800;2023-04-03T16:11:31;1.40;;;0.98;;
22778;SDS011;11556;51.194;3.800;2023-04-03T16:13:57;1.70;;;0.90;;
22778;SDS011;11556;51.194;3.800;2023-04-03T16:16:23;2.50;;;0.90;;
22778;SDS011;11556;51.194;3.800;2023-04-03T16:18:50;1.75;;;0.93;;
22778;SDS011;11556;51.194;3.800;2023-04-03T16:21:16;2.05;;;0.90;;
22778;SDS011;11556;51.194;3.800;2023-04-03T16:23:42;2.17;;;1.00;;
22778;SDS011;11556;51.194;3.800;2023-04-03T16:26:09;2.42;;;1.00;;